Time;durP1;ratioP1;P1;durP2;ratioP2;P2;SDS_P1;SDS_P2;PMS_P1;PMS_P2;Temp;Humidity;BMP_temperature;BMP_pressure;BME280_temperature;BME280_humidity;BME280_pressure;Samples;Min_cycle;Max_cycle;Signal;HPM_P1;HPM_P2
2022/12/18 00:01:48;;;;;;;31.20;17.77;;;-4.50;52.90;;;;;;5039167;28;20261;-52
2022/12/18 00:04:25;;;;;;;32.13;17.57;;;-4.50;99.30;;;;;;5050722;28;20182;-52
2022/12/18 00:06:51;;;;;;;35.93;19.10;;;-4.60;99.90;;;;;;5032821;28;20440;-52
2022/12/18 00:09:17;;;;;;;34.07;17.77;;;-4.60;99.90;;;;;;5050832;28;20551;-52
2022/12/18 00:11:43;;;;;;;41.03;18.50;;;-4.60;99.90;;;;;;5050920;28;20933;-53
2022/12/18 00:14:10;;;;;;;36.93;18.37;;;-4.50;99.90;;;;;;5032317;28;20431;-53
2022/12/18 00:16:36;;;;;;;35.97;17.90;;;-4.50;99.90;;;;;;5049200;28;20198;-52
2022/12/18 00:19:03;;;;;;;34.03;17.40;;;-4.50;99.90;;;;;;5049991;28;20456;-52
2022/12/18 00:21:30;;;;;;;33.80;17.97;;;-4.60;99.90;;;;;;5050095;28;20483;-53
2022/12/18 00:23:56;;;;;;;35.90;17.80;;;-4.50;99.90;;;;;;5049454;28;20432;-52
2022/12/18 00:26:31;;;;;;;36.70;18.73;;;-4.50;99.90;;;;;;5050545;28;20480;-52
2022/12/18 00:29:01;;;;;;;39.67;18.70;;;-4.40;99.90;;;;;;5050325;28;20847;-52
2022/12/18 00:31:26;;;;;;;35.67;18.53;;;-4.30;99.90;;;;;;5049536;28;20460;-52
2022/12/18 00:33:55;;;;;;;45.97;18.67;;;-4.30;99.90;;;;;;5048115;28;20440;-53
2022/12/18 00:36:24;;;;;;;34.83;18.20;;;-4.40;99.90;;;;;;5046103;28;20222;-52
2022/12/18 00:38:50;;;;;;;31.93;17.57;;;-4.40;99.90;;;;;;5049846;28;20429;-52
2022/12/18 00:42:55;;;;;;;36.07;17.07;;;-4.50;99.90;;;;;;5049323;28;20445;-53
2022/12/18 00:44:03;;;;;;;35.27;18.97;;;-4.60;99.90;;;;;;5054648;28;20424;-52
2022/12/18 00:46:29;;;;;;;32.63;16.60;;;-4.50;99.90;;;;;;5050689;28;21045;-53
2022/12/18 00:48:55;;;;;;;39.77;19.00;;;-4.50;99.90;;;;;;5054542;28;20491;-52
2022/12/18 00:51:20;;;;;;;40.60;17.80;;;-4.50;99.90;;;;;;5049088;28;20352;-53
2022/12/18 00:53:46;;;;;;;31.87;16.67;;;-4.50;99.90;;;;;;5054699;28;20151;-52
2022/12/18 00:56:11;;;;;;;33.60;17.60;;;-4.60;99.90;;;;;;5050828;28;20295;-52
2022/12/18 00:58:37;;;;;;;41.30;18.90;;;-4.60;99.90;;;;;;5054299;28;20201;-52
2022/12/18 01:01:06;;;;;;;37.87;18.60;;;-4.60;99.90;;;;;;5048829;28;20195;-52
2022/12/18 01:03:32;;;;;;;37.20;18.33;;;-4.60;99.90;;;;;;5053821;28;20225;-52
2022/12/18 01:05:58;;;;;;;35.13;18.17;;;-4.60;99.90;;;;;;5032967;28;20488;-52
2022/12/18 01:08:23;;;;;;;34.00;18.17;;;-4.60;99.90;;;;;;5052830;28;20747;-52
2022/12/18 01:10:49;;;;;;;37.57;17.33;;;-4.60;99.90;;;;;;5049031;28;20210;-52
2022/12/18 01:13:15;;;;;;;30.93;17.50;;;-4.70;99.90;;;;;;5054308;28;20214;-52
2022/12/18 01:15:40;;;;;;;36.73;19.10;;;-4.60;1.00;;;;;;5051096;28;20233;-52
2022/12/18 01:18:06;;;;;;;42.50;19.20;;;-4.60;1.00;;;;;;5053909;28;20159;-52
2022/12/18 01:20:32;;;;;;;42.23;17.90;;;-4.60;99.90;;;;;;5050117;28;20536;-52
2022/12/18 01:22:58;;;;;;;38.00;19.40;;;-4.50;99.90;;;;;;5053709;28;20432;-52
2022/12/18 01:25:24;;;;;;;38.43;18.43;;;-4.40;99.90;;;;;;5040995;28;20601;-52
2022/12/18 01:27:49;;;;;;;36.57;17.93;;;-4.50;99.90;;;;;;5053985;28;20210;-52
2022/12/18 01:30:15;;;;;;;33.90;16.60;;;-4.60;99.90;;;;;;5050072;28;20218;-52
2022/12/18 01:32:40;;;;;;;31.33;15.73;;;-4.50;99.90;;;;;;5052963;28;20640;-52
2022/12/18 01:35:07;;;;;;;32.23;16.67;;;-4.50;99.90;;;;;;5051206;28;20264;-52
2022/12/18 01:37:32;;;;;;;28.93;15.93;;;-4.50;99.90;;;;;;5053904;28;20183;-52
2022/12/18 01:39:58;;;;;;;37.40;17.70;;;-4.40;95.50;;;;;;5052205;28;20953;-52
2022/12/18 01:42:25;;;;;;;38.43;19.13;;;-4.40;10.00;;;;;;5034129;28;20190;-53
2022/12/18 01:44:56;;;;;;;39.17;19.93;;;-4.40;1.00;;;;;;5048942;28;20524;-52
2022/12/18 01:47:46;;;;;;;29.63;15.53;;;-4.40;1.00;;;;;;5053336;28;20439;-53
2022/12/18 01:50:35;;;;;;;30.07;16.20;;;-4.50;1.00;;;;;;5051028;28;20961;-52
2022/12/18 01:53:10;;;;;;;35.63;16.40;;;-4.60;1.00;;;;;;5052108;28;20468;-52
2022/12/18 01:55:48;;;;;;;36.20;16.10;;;-4.60;1.00;;;;;;5053312;28;20436;-53
2022/12/18 01:58:15;;;;;;;31.83;16.77;;;-4.60;1.00;;;;;;5046700;28;20447;-52
2022/12/18 02:00:41;;;;;;;31.87;15.90;;;-4.60;1.00;;;;;;5053306;28;20474;-52
2022/12/18 02:03:07;;;;;;;27.80;15.27;;;-4.60;1.00;;;;;;5048433;28;20575;-52
2022/12/18 02:05:49;;;;;;;33.37;15.97;;;-4.70;1.00;;;;;;5051346;28;20615;-52
2022/12/18 02:08:14;;;;;;;27.57;15.50;;;-4.70;1.00;;;;;;5053651;28;20182;-53
2022/12/18 02:10:40;;;;;;;32.33;15.90;;;-4.70;1.00;;;;;;5053118;28;20452;-52
2022/12/18 02:13:27;;;;;;;28.60;16.10;;;-4.70;1.00;;;;;;5053310;28;20648;-53
2022/12/18 02:16:05;;;;;;;30.40;15.20;;;-4.70;1.00;;;;;;5037963;28;20222;-53
2022/12/18 02:18:36;;;;;;;29.90;15.93;;;-4.70;1.00;;;;;;5032151;28;20779;-52
2022/12/18 02:21:44;;;;;;;26.80;15.30;;;-4.70;1.00;;;;;;5033111;28;20529;-52
2022/12/18 02:24:38;;;;;;;27.33;14.17;;;-4.70;1.00;;;;;;5045235;28;20835;-53
2022/12/18 02:27:10;;;;;;;36.03;16.50;;;-4.80;1.00;;;;;;5052843;28;20445;-52
2022/12/18 02:29:44;;;;;;;34.57;17.70;;;-4.90;1.00;;;;;;5034188;28;20469;-53
2022/12/18 02:32:14;;;;;;;29.90;15.63;;;-4.90;1.00;;;;;;5043929;28;20944;-52
2022/12/18 02:34:42;;;;;;;28.43;14.53;;;-4.90;1.00;;;;;;5032955;28;20425;-53
2022/12/18 02:37:13;;;;;;;27.90;14.40;;;-4.90;1.00;;;;;;5045799;28;20504;-53
2022/12/18 02:39:41;;;;;;;33.50;16.13;;;-5.00;1.00;;;;;;5052573;28;20401;-53
2022/12/18 02:42:07;;;;;;;31.13;15.27;;;-5.10;1.00;;;;;;5052898;28;20410;-52
2022/12/18 02:44:41;;;;;;;31.60;16.97;;;-5.10;1.00;;;;;;5052789;28;20754;-53
2022/12/18 02:47:11;;;;;;;27.10;15.33;;;-5.20;1.00;;;;;;5052416;28;20763;-53
2022/12/18 02:49:57;;;;;;;30.73;16.27;;;-5.20;1.00;;;;;;5039703;28;20465;-54
2022/12/18 02:52:32;;;;;;;31.00;15.40;;;-5.30;1.00;;;;;;5032903;28;20771;-53
2022/12/18 02:55:03;;;;;;;32.90;14.40;;;-5.30;48.60;;;;;;5049496;28;20474;-52
2022/12/18 02:57:39;;;;;;;31.90;17.00;;;-5.30;99.90;;;;;;5051081;28;20401;-53
2022/12/18 03:00:12;;;;;;;32.93;15.53;;;-5.30;99.90;;;;;;5039641;28;20528;-53
2022/12/18 03:03:00;;;;;;;29.67;15.67;;;-5.40;99.90;;;;;;5049399;28;20907;-52
2022/12/18 03:05:44;;;;;;;33.07;16.90;;;-5.40;99.90;;;;;;5047920;28;20433;-52
2022/12/18 03:08:18;;;;;;;31.33;16.40;;;-5.50;99.90;;;;;;5037303;28;20440;-53
2022/12/18 03:10:53;;;;;;;29.87;15.67;;;-5.50;99.90;;;;;;5037664;28;20462;-53
2022/12/18 03:13:27;;;;;;;33.73;16.03;;;-5.60;99.90;;;;;;5046852;28;20440;-52
2022/12/18 03:15:56;;;;;;;29.77;14.43;;;-5.60;99.90;;;;;;5050910;28;20433;-53
2022/12/18 03:18:50;;;;;;;24.67;14.00;;;-5.70;99.90;;;;;;5051241;28;20433;-53
2022/12/18 03:21:21;;;;;;;28.13;14.47;;;-5.70;99.90;;;;;;5051296;28;20488;-53
2022/12/18 03:23:50;;;;;;;24.47;13.50;;;-5.70;99.90;;;;;;5050528;28;20439;-53
2022/12/18 03:26:19;;;;;;;25.20;14.17;;;-5.80;99.90;;;;;;5051218;28;20607;-52
2022/12/18 03:29:01;;;;;;;30.67;14.37;;;-5.70;1.00;;;;;;5051067;28;20473;-53
2022/12/18 03:31:29;;;;;;;33.33;13.90;;;-5.70;1.00;;;;;;5050707;28;20508;-53
2022/12/18 03:34:03;;;;;;;26.40;14.23;;;-5.70;1.00;;;;;;5050273;28;20440;-53
2022/12/18 03:36:31;;;;;;;27.33;14.03;;;-5.70;1.00;;;;;;5050854;28;20458;-53
2022/12/18 03:38:57;;;;;;;28.80;13.43;;;-5.70;1.00;;;;;;5050739;28;20516;-52
2022/12/18 03:41:44;;;;;;;29.83;13.27;;;-5.70;1.00;;;;;;5050298;28;20867;-53
2022/12/18 03:44:31;;;;;;;28.50;13.47;;;-5.70;1.00;;;;;;5051323;28;20198;-52
2022/12/18 03:46:57;;;;;;;30.30;13.40;;;-5.70;1.00;;;;;;5050515;28;21013;-54
2022/12/18 03:49:52;;;;;;;29.60;12.67;;;-5.80;1.00;;;;;;5049914;28;20578;-52
2022/12/18 03:52:25;;;;;;;25.07;13.33;;;-5.70;1.00;;;;;;5046213;28;20452;-53
2022/12/18 03:54:53;;;;;;;26.43;13.57;;;-5.70;1.00;;;;;;5032299;28;20444;-52
2022/12/18 03:57:23;;;;;;;26.93;13.43;;;-5.70;1.00;;;;;;5044111;28;21076;-53
2022/12/18 03:59:54;;;;;;;30.77;14.10;;;-5.60;1.00;;;;;;5048565;28;20479;-53
2022/12/18 04:02:22;;;;;;;27.20;13.77;;;-5.70;1.00;;;;;;5050360;28;20440;-52
2022/12/18 04:04:56;;;;;;;28.50;13.60;;;-5.60;1.00;;;;;;5049881;28;21026;-52
2022/12/18 04:07:23;;;;;;;24.90;13.57;;;-5.70;1.00;;;;;;5050442;28;20435;-53
2022/12/18 04:09:50;;;;;;;23.30;12.53;;;-5.70;99.90;;;;;;5049439;28;20557;-53
2022/12/18 04:12:15;;;;;;;27.00;13.50;;;-5.70;1.00;;;;;;5046130;28;20440;-52
2022/12/18 04:14:41;;;;;;;29.67;13.87;;;-5.60;1.00;;;;;;5049551;28;20463;-53
2022/12/18 04:17:06;;;;;;;28.40;13.77;;;-5.60;1.00;;;;;;5031082;28;20210;-52
2022/12/18 04:19:32;;;;;;;32.73;12.80;;;-5.60;99.90;;;;;;5048532;28;20179;-53
2022/12/18 04:21:58;;;;;;;25.77;13.77;;;-5.70;99.90;;;;;;5050239;28;20179;-52
2022/12/18 04:24:23;;;;;;;28.60;14.00;;;-5.70;99.90;;;;;;5049812;28;20660;-52
2022/12/18 04:26:49;;;;;;;25.90;14.03;;;-5.60;99.90;;;;;;5043780;28;20194;-53
2022/12/18 04:29:14;;;;;;;30.07;13.33;;;-5.60;99.90;;;;;;5046819;28;20194;-59
2022/12/18 04:31:40;;;;;;;29.40;13.90;;;-5.70;99.90;;;;;;5042264;28;20221;-53
2022/12/18 04:34:06;;;;;;;24.43;12.50;;;-5.70;99.90;;;;;;5049580;28;20186;-52
2022/12/18 04:36:31;;;;;;;25.00;13.20;;;-5.70;99.90;;;;;;5043055;28;20272;-53
2022/12/18 04:38:57;;;;;;;24.37;12.90;;;-5.70;99.90;;;;;;5044580;28;20179;-53
2022/12/18 04:41:22;;;;;;;24.70;12.53;;;-5.70;99.90;;;;;;5049233;28;20745;-52
2022/12/18 04:43:48;;;;;;;23.53;11.80;;;-5.80;99.90;;;;;;5048329;28;20190;-53
2022/12/18 04:46:14;;;;;;;36.97;12.90;;;-5.90;99.90;;;;;;5035538;28;20202;-53
2022/12/18 04:48:39;;;;;;;27.23;14.07;;;-5.90;99.90;;;;;;5046160;28;20229;-52
2022/12/18 04:51:06;;;;;;;26.70;13.47;;;-6.00;99.90;;;;;;5047892;28;20222;-52
2022/12/18 04:53:32;;;;;;;29.30;13.87;;;-6.00;99.90;;;;;;5048774;28;20578;-58
2022/12/18 04:56:12;;;;;;;25.60;13.10;;;-6.00;99.90;;;;;;5047431;28;20470;-53
2022/12/18 04:58:39;;;;;;;28.07;13.87;;;-6.00;99.90;;;;;;5032248;28;20273;-52
2022/12/18 05:01:07;;;;;;;33.30;13.10;;;-5.90;99.90;;;;;;5048588;28;20468;-52
2022/12/18 05:03:33;;;;;;;25.00;12.50;;;-6.00;99.90;;;;;;5016710;28;20445;-52
2022/12/18 05:05:58;;;;;;;26.80;13.90;;;-6.00;99.90;;;;;;5042365;28;21045;-53
2022/12/18 05:08:24;;;;;;;32.40;13.87;;;-6.00;1.00;;;;;;5048679;28;20226;-53
2022/12/18 05:10:50;;;;;;;28.03;13.57;;;-5.90;99.90;;;;;;5048641;28;20267;-52
2022/12/18 05:13:15;;;;;;;24.20;13.17;;;-5.90;99.90;;;;;;5031772;28;20204;-52
2022/12/18 05:15:41;;;;;;;25.43;13.13;;;-5.90;99.90;;;;;;5047395;28;20191;-52
2022/12/18 05:18:08;;;;;;;25.07;13.40;;;-5.90;99.90;;;;;;5048598;28;20341;-53
2022/12/18 05:20:33;;;;;;;21.03;11.60;;;-5.90;99.90;;;;;;5050088;28;20791;-52
2022/12/18 05:22:59;;;;;;;23.20;13.03;;;-6.00;99.90;;;;;;5046388;28;20448;-52
2022/12/18 05:25:24;;;;;;;29.70;12.80;;;-5.90;99.90;;;;;;5048098;28;20291;-53
2022/12/18 05:27:50;;;;;;;29.67;13.70;;;-5.90;99.90;;;;;;5050714;28;20221;-52
2022/12/18 05:30:16;;;;;;;21.13;12.53;;;-5.80;99.90;;;;;;5053567;28;20218;-52
2022/12/18 05:32:42;;;;;;;22.20;12.37;;;-5.70;99.90;;;;;;5052921;28;20931;-52
2022/12/18 05:35:10;;;;;;;23.33;12.60;;;-5.80;99.90;;;;;;5050130;28;20506;-52
2022/12/18 05:37:35;;;;;;;28.00;12.50;;;-5.80;80.50;;;;;;5046707;28;20459;-53
2022/12/18 05:40:03;;;;;;;27.33;14.20;;;-5.90;55.10;;;;;;5051898;28;20453;-52
2022/12/18 05:42:28;;;;;;;28.23;13.03;;;-5.80;66.80;;;;;;5051869;28;20206;-52
2022/12/18 05:44:54;;;;;;;30.47;13.43;;;-5.70;63.00;;;;;;5049629;28;20486;-52
2022/12/18 05:47:20;;;;;;;22.50;13.40;;;-5.70;1.00;;;;;;5053745;28;20210;-52
2022/12/18 05:49:45;;;;;;;25.67;13.30;;;-5.70;1.00;;;;;;5051758;28;20213;-53
2022/12/18 05:52:11;;;;;;;22.83;12.80;;;-5.80;1.00;;;;;;5052292;28;20186;-52
2022/12/18 05:54:36;;;;;;;31.90;13.53;;;-5.90;1.00;;;;;;5053379;28;20174;-52
2022/12/18 05:57:02;;;;;;;28.33;13.97;;;-5.90;1.00;;;;;;5052034;28;20243;-52
2022/12/18 05:59:28;;;;;;;30.33;13.73;;;-5.90;1.00;;;;;;5054576;28;20229;-53
2022/12/18 06:01:53;;;;;;;30.03;14.77;;;-6.00;1.00;;;;;;5047608;28;20221;-52
2022/12/18 06:04:19;;;;;;;25.10;13.80;;;-6.00;1.00;;;;;;5050551;28;20713;-57
2022/12/18 06:06:44;;;;;;;32.57;15.93;;;-6.00;1.00;;;;;;5053260;28;20555;-53
2022/12/18 06:09:10;;;;;;;26.70;15.07;;;-6.10;23.60;;;;;;5052422;28;20241;-52
2022/12/18 06:11:37;;;;;;;24.77;14.23;;;-6.10;85.20;;;;;;5052920;28;20285;-52
2022/12/18 06:14:05;;;;;;;27.20;15.10;;;-6.10;79.00;;;;;;5044250;28;20194;-52
2022/12/18 06:16:31;;;;;;;27.47;14.17;;;-6.20;99.90;;;;;;5051890;28;20464;-52
2022/12/18 06:19:00;;;;;;;30.77;15.00;;;-6.20;99.90;;;;;;5047536;28;20483;-52
2022/12/18 06:21:27;;;;;;;31.13;16.00;;;-6.10;99.90;;;;;;5050181;28;20451;-53
2022/12/18 06:23:53;;;;;;;20.40;13.20;;;-6.10;99.90;;;;;;5046777;28;20428;-52
2022/12/18 06:26:18;;;;;;;26.20;15.60;;;-6.10;99.90;;;;;;5052434;28;20476;-52
2022/12/18 06:28:44;;;;;;;35.73;15.67;;;-6.00;99.90;;;;;;5051971;28;20198;-53
2022/12/18 06:31:11;;;;;;;34.30;14.80;;;-5.90;99.90;;;;;;5041680;28;20222;-53
2022/12/18 06:33:37;;;;;;;26.43;14.67;;;-6.00;99.90;;;;;;5045580;28;20220;-53
2022/12/18 06:36:12;;;;;;;26.27;14.50;;;-6.10;32.10;;;;;;5050431;28;20910;-53
2022/12/18 06:38:40;;;;;;;25.87;13.87;;;-6.10;70.90;;;;;;5049559;28;20436;-52
2022/12/18 06:41:12;;;;;;;28.00;14.70;;;-6.10;99.90;;;;;;5049714;28;20895;-52
2022/12/18 06:43:38;;;;;;;28.70;14.80;;;-6.00;99.90;;;;;;5050780;28;20539;-53
2022/12/18 06:46:04;;;;;;;29.30;14.80;;;-6.00;99.90;;;;;;5050276;28;21005;-53
2022/12/18 06:48:30;;;;;;;26.90;14.00;;;-6.00;99.90;;;;;;5041545;28;20187;-52
2022/12/18 06:50:56;;;;;;;30.70;15.13;;;-5.90;71.80;;;;;;5050803;28;20583;-52
2022/12/18 06:53:22;;;;;;;26.63;13.63;;;-5.90;76.70;;;;;;5049394;28;20411;-52
2022/12/18 06:55:47;;;;;;;25.13;12.70;;;-5.90;23.30;;;;;;5050823;28;20194;-52
2022/12/18 06:58:13;;;;;;;30.10;14.70;;;-5.80;31.90;;;;;;5051497;28;20602;-52
2022/12/18 07:00:38;;;;;;;28.90;13.60;;;-5.90;1.00;;;;;;5051882;28;20742;-53
2022/12/18 07:03:04;;;;;;;29.13;13.87;;;-5.90;1.00;;;;;;5033644;28;20194;-52
2022/12/18 07:05:30;;;;;;;23.30;13.10;;;-5.90;1.00;;;;;;5048144;28;20233;-52
2022/12/18 07:07:55;;;;;;;23.90;14.20;;;-6.00;1.00;;;;;;5052063;28;20216;-53
2022/12/18 07:10:21;;;;;;;24.30;11.90;;;-6.00;1.00;;;;;;5049248;28;20222;-52
2022/12/18 07:12:46;;;;;;;21.90;12.80;;;-6.10;7.30;;;;;;5051269;28;20224;-53
2022/12/18 07:15:12;;;;;;;25.77;12.50;;;-6.10;51.30;;;;;;5050033;28;20616;-52
2022/12/18 07:17:37;;;;;;;25.67;13.60;;;-6.10;99.90;;;;;;5050186;28;20190;-52
2022/12/18 07:20:04;;;;;;;26.83;12.50;;;-6.10;99.90;;;;;;5050050;28;20308;-52
2022/12/18 07:22:29;;;;;;;27.40;14.23;;;-6.10;99.90;;;;;;5049686;28;20221;-52
2022/12/18 07:24:55;;;;;;;21.23;12.10;;;-6.10;99.90;;;;;;5048916;28;20523;-52
2022/12/18 07:27:21;;;;;;;31.67;13.50;;;-5.90;99.90;;;;;;5051071;28;20651;-53
2022/12/18 07:29:47;;;;;;;19.80;11.70;;;-5.90;99.90;;;;;;5050394;28;20225;-52
2022/12/18 07:32:13;;;;;;;26.43;13.23;;;-5.80;99.90;;;;;;5051069;28;20959;-52
2022/12/18 07:34:38;;;;;;;23.80;12.93;;;-5.80;78.50;;;;;;5045465;28;20576;-53
2022/12/18 07:37:04;;;;;;;27.77;13.60;;;-5.80;1.00;;;;;;5050531;28;20468;-52
2022/12/18 07:39:30;;;;;;;25.13;13.60;;;-5.90;1.00;;;;;;5048072;28;20197;-52
2022/12/18 07:44:40;;;;;;;25.40;13.03;;;-5.90;1.00;;;;;;5050493;28;20236;-52
2022/12/18 07:47:05;;;;;;;23.97;13.80;;;-5.80;1.00;;;;;;5050534;28;20448;-52
2022/12/18 07:49:31;;;;;;;24.40;13.63;;;-5.90;1.00;;;;;;5049342;28;20190;-52
2022/12/18 07:51:58;;;;;;;29.97;14.23;;;-5.90;1.00;;;;;;5049757;28;20189;-53
2022/12/18 07:54:24;;;;;;;22.87;13.93;;;-5.90;1.00;;;;;;5050332;28;20179;-53
2022/12/18 07:56:50;;;;;;;29.20;13.67;;;-5.90;1.00;;;;;;5050138;28;20550;-52
2022/12/18 07:59:16;;;;;;;28.23;14.60;;;-5.90;1.00;;;;;;5049324;28;20440;-52
2022/12/18 08:01:42;;;;;;;25.10;14.33;;;-5.80;1.00;;;;;;5042140;28;20449;-52
2022/12/18 08:04:07;;;;;;;27.10;14.43;;;-5.80;1.00;;;;;;5051231;28;20183;-53
2022/12/18 08:06:33;;;;;;;29.13;14.07;;;-5.70;1.00;;;;;;5047318;28;20182;-52
2022/12/18 08:08:58;;;;;;;23.43;14.03;;;-5.70;1.00;;;;;;5049638;28;20406;-53
2022/12/18 08:11:26;;;;;;;29.77;14.97;;;-5.60;1.00;;;;;;5047471;28;20205;-52
2022/12/18 08:13:52;;;;;;;35.23;13.80;;;-5.60;1.00;;;;;;5047854;28;20521;-52
2022/12/18 08:16:18;;;;;;;27.53;14.07;;;-5.60;1.00;;;;;;5048866;28;20481;-52
2022/12/18 08:18:44;;;;;;;22.10;13.10;;;-5.50;1.00;;;;;;5049389;28;20529;-53
2022/12/18 08:21:20;;;;;;;25.40;14.07;;;-5.50;1.00;;;;;;5047675;28;20543;-53
2022/12/18 08:23:46;;;;;;;30.57;13.97;;;-5.50;1.00;;;;;;5049965;28;20189;-53
2022/12/18 08:26:13;;;;;;;26.50;13.40;;;-5.40;1.00;;;;;;5032214;28;20476;-53
2022/12/18 08:28:39;;;;;;;34.40;13.73;;;-5.40;1.00;;;;;;5052128;28;20445;-53
2022/12/18 08:31:05;;;;;;;25.60;13.17;;;-5.30;1.00;;;;;;5027277;28;20503;-53
2022/12/18 08:33:31;;;;;;;22.13;12.60;;;-5.20;1.00;;;;;;5048801;28;20523;-52
2022/12/18 08:35:58;;;;;;;23.30;11.80;;;-5.20;1.00;;;;;;5037890;28;20514;-53
2022/12/18 08:38:24;;;;;;;28.80;14.73;;;-5.20;99.90;;;;;;5032986;28;20537;-52
2022/12/18 08:40:54;;;;;;;24.60;12.47;;;-5.10;99.90;;;;;;5048802;28;20448;-53
2022/12/18 08:46:04;;;;;;;22.50;12.40;;;-4.90;99.90;;;;;;5047615;28;20431;-52
2022/12/18 08:48:29;;;;;;;23.83;12.70;;;-4.90;99.90;;;;;;5048000;28;20440;-52
2022/12/18 08:50:59;;;;;;;22.53;12.83;;;-4.90;99.90;;;;;;5049965;28;20656;-53
2022/12/18 08:53:25;;;;;;;23.17;12.83;;;-4.80;99.90;;;;;;5045121;28;20193;-53
2022/12/18 08:55:51;;;;;;;26.53;13.57;;;-4.70;99.90;;;;;;5049733;28;20455;-52
2022/12/18 08:58:17;;;;;;;24.43;12.80;;;-4.70;99.90;;;;;;5029875;28;20524;-52
2022/12/18 09:00:43;;;;;;;26.10;13.43;;;-4.70;99.90;;;;;;5047777;28;20523;-53
2022/12/18 09:03:15;;;;;;;28.37;12.83;;;-4.60;99.90;;;;;;5040653;28;20194;-53
2022/12/18 09:05:41;;;;;;;23.03;13.00;;;-4.60;99.90;;;;;;5053152;28;20648;-52
2022/12/18 09:08:07;;;;;;;25.60;12.70;;;-4.60;99.90;;;;;;5054341;28;20420;-53
2022/12/18 09:10:33;;;;;;;25.33;13.10;;;-4.60;99.90;;;;;;5052024;28;20622;-52
2022/12/18 09:12:58;;;;;;;22.10;12.20;;;-4.50;99.90;;;;;;5049903;28;20186;-61
2022/12/18 09:15:25;;;;;;;24.73;12.10;;;-4.50;96.60;;;;;;5047721;28;20197;-53
2022/12/18 09:17:52;;;;;;;29.37;14.47;;;-4.40;97.90;;;;;;5052920;28;20221;-52
2022/12/18 09:20:18;;;;;;;20.53;12.90;;;-4.30;92.90;;;;;;5052094;28;20527;-53
2022/12/18 09:22:44;;;;;;;24.97;13.30;;;-4.30;86.80;;;;;;5051945;28;20474;-53
2022/12/18 09:25:10;;;;;;;25.27;14.30;;;-4.20;65.90;;;;;;5050607;28;20480;-52
2022/12/18 09:27:35;;;;;;;23.60;14.20;;;-4.10;40.60;;;;;;5053504;28;20645;-53
2022/12/18 09:30:01;;;;;;;28.90;12.77;;;-4.10;18.30;;;;;;5052014;28;20675;-52
2022/12/18 09:32:27;;;;;;;25.57;12.93;;;-4.00;15.10;;;;;;5051645;28;20709;-52
2022/12/18 09:34:53;;;;;;;20.10;12.07;;;-3.90;7.70;;;;;;5044087;28;20520;-53
2022/12/18 09:37:18;;;;;;;23.10;12.97;;;-3.90;1.00;;;;;;5016097;28;20278;-53
2022/12/18 09:39:44;;;;;;;25.10;13.20;;;-3.90;1.00;;;;;;5048303;28;20198;-53
2022/12/18 09:42:20;;;;;;;22.67;14.53;;;-3.90;1.00;;;;;;5049690;28;20195;-53
2022/12/18 09:44:50;;;;;;;22.90;12.20;;;-3.70;1.00;;;;;;5050647;28;20196;-53
2022/12/18 09:47:25;;;;;;;24.37;13.07;;;-3.60;1.00;;;;;;5054145;28;20421;-53
2022/12/18 09:49:56;;;;;;;27.27;13.40;;;-3.40;1.00;;;;;;5052556;28;20471;-53
2022/12/18 09:52:37;;;;;;;24.17;13.70;;;-3.30;1.00;;;;;;5052981;28;20476;-53
2022/12/18 09:55:17;;;;;;;21.27;13.27;;;-3.20;1.00;;;;;;5051989;28;20436;-53
2022/12/18 09:57:51;;;;;;;23.93;12.67;;;-3.10;1.00;;;;;;5053237;28;20495;-53
2022/12/18 10:00:22;;;;;;;21.60;12.37;;;-3.00;1.00;;;;;;5053700;28;20423;-53
2022/12/18 10:02:51;;;;;;;22.00;12.20;;;-2.90;1.00;;;;;;5051916;28;20926;-53
2022/12/18 10:05:26;;;;;;;25.97;12.43;;;-2.90;1.00;;;;;;5051701;28;20452;-53
2022/12/18 10:07:56;;;;;;;21.97;12.80;;;-2.80;1.00;;;;;;5053622;28;20401;-59
2022/12/18 10:10:43;;;;;;;30.97;13.97;;;-2.60;1.00;;;;;;5051577;28;20464;-53
2022/12/18 10:13:30;;;;;;;22.90;13.10;;;-2.60;1.00;;;;;;5049873;28;20452;-53
2022/12/18 10:16:14;;;;;;;23.83;12.50;;;-2.40;1.00;;;;;;5052081;28;20937;-53
2022/12/18 10:19:12;;;;;;;22.60;13.30;;;-2.30;1.00;;;;;;5050408;28;20490;-53
2022/12/18 10:21:50;;;;;;;19.40;12.13;;;-2.10;1.00;;;;;;5050423;28;20518;-53
2022/12/18 10:24:16;;;;;;;21.30;12.70;;;-1.80;1.00;;;;;;5050924;28;20930;-53
2022/12/18 10:26:42;;;;;;;26.17;14.13;;;-1.60;1.00;;;;;;5050988;28;20459;-53
2022/12/18 10:29:13;;;;;;;21.67;13.83;;;-1.40;1.00;;;;;;5052226;28;20640;-53
2022/12/18 10:31:39;;;;;;;18.93;12.67;;;-1.00;1.00;;;;;;5049385;28;20476;-53
2022/12/18 10:34:08;;;;;;;19.60;12.50;;;-0.50;1.00;;;;;;5051604;28;20825;-54
2022/12/18 10:36:34;;;;;;;17.87;11.23;;;-0.30;1.00;;;;;;5048985;28;20447;-53
2022/12/18 10:39:29;;;;;;;22.83;12.83;;;0.00;1.00;;;;;;5054013;28;20432;-56
2022/12/18 10:42:19;;;;;;;21.90;12.77;;;0.10;1.00;;;;;;5037280;28;20463;-53
2022/12/18 10:44:45;;;;;;;21.10;12.60;;;0.20;1.00;;;;;;5050805;28;20447;-53
2022/12/18 10:47:18;;;;;;;62.43;31.50;;;0.30;1.00;;;;;;5050411;28;20443;-57
2022/12/18 10:49:54;;;;;;;23.07;13.13;;;0.50;1.00;;;;;;5048516;28;20452;-54
2022/12/18 10:52:25;;;;;;;19.87;11.93;;;1.20;1.00;;;;;;5050958;28;20531;-54
2022/12/18 10:55:03;;;;;;;22.60;13.00;;;2.00;1.00;;;;;;5047629;28;20442;-53
2022/12/18 10:57:33;;;;;;;22.80;13.23;;;2.60;1.00;;;;;;5041206;28;20927;-53
2022/12/18 11:00:19;;;;;;;18.90;11.53;;;4.00;1.00;;;;;;5048851;28;20451;-53
2022/12/18 11:02:45;;;;;;;23.30;12.03;;;5.10;1.00;;;;;;5046380;28;20441;-54
2022/12/18 11:05:30;;;;;;;22.37;13.10;;;5.20;1.00;;;;;;5050889;28;20448;-54
2022/12/18 11:07:57;;;;;;;21.60;11.20;;;5.20;1.00;;;;;;5047949;28;20182;-54
2022/12/18 11:10:32;;;;;;;19.83;11.73;;;5.30;1.00;;;;;;5033048;28;20472;-54
2022/12/18 11:13:20;;;;;;;20.20;11.57;;;4.90;1.00;;;;;;5052113;28;20415;-54
2022/12/18 11:15:46;;;;;;;17.97;12.23;;;4.50;1.00;;;;;;5051543;28;20417;-53
2022/12/18 11:18:33;;;;;;;17.97;12.23;;;4.20;1.00;;;;;;5050170;28;20506;-53
2022/12/18 11:21:12;;;;;;;20.03;11.67;;;3.90;1.00;;;;;;5048935;28;21028;-53
2022/12/18 11:23:51;;;;;;;20.30;12.40;;;3.20;1.00;;;;;;5048650;28;20821;-54
2022/12/18 11:26:17;;;;;;;19.90;12.20;;;2.60;1.00;;;;;;5048158;28;20981;-54
2022/12/18 11:28:51;;;;;;;24.27;12.33;;;2.20;1.00;;;;;;5031266;28;20414;-53
2022/12/18 11:31:31;;;;;;;25.63;12.83;;;1.50;1.00;;;;;;5048248;28;20478;-53
2022/12/18 11:34:10;;;;;;;18.77;12.40;;;1.10;1.00;;;;;;5047867;28;20440;-53
2022/12/18 11:36:42;;;;;;;26.40;13.17;;;0.60;1.00;;;;;;5043098;28;20421;-53
2022/12/18 11:39:22;;;;;;;19.80;11.90;;;0.40;1.00;;;;;;5050088;28;20463;-53
2022/12/18 11:42:11;;;;;;;23.07;12.50;;;0.10;1.00;;;;;;5048434;28;20947;-53
2022/12/18 11:44:50;;;;;;;22.47;12.90;;;0.00;1.00;;;;;;5041652;28;20440;-53
2022/12/18 11:47:38;;;;;;;24.70;12.80;;;0.40;1.00;;;;;;5050862;28;20422;-53
2022/12/18 11:50:15;;;;;;;22.10;11.83;;;1.00;1.00;;;;;;5050285;28;20803;-54
2022/12/18 11:52:42;;;;;;;27.60;12.53;;;1.90;1.00;;;;;;5050946;28;20429;-53
2022/12/18 11:55:14;;;;;;;22.20;12.10;;;2.60;1.00;;;;;;5036947;28;20771;-54
2022/12/18 11:57:55;;;;;;;23.10;10.93;;;3.00;1.00;;;;;;5051365;28;20479;-53
2022/12/18 12:00:22;;;;;;;22.37;11.50;;;3.30;1.00;;;;;;5050310;28;20474;-53
2022/12/18 12:03:05;;;;;;;18.40;10.90;;;2.90;1.00;;;;;;5051172;28;20528;-54
2022/12/18 12:05:36;;;;;;;20.23;11.53;;;2.60;1.00;;;;;;5049753;28;20466;-54
2022/12/18 12:08:07;;;;;;;18.90;11.87;;;2.20;1.00;;;;;;5045901;28;20499;-53
2022/12/18 12:10:57;;;;;;;23.77;13.30;;;1.80;1.00;;;;;;5046954;28;20512;-53
2022/12/18 12:13:41;;;;;;;21.40;12.03;;;1.30;1.00;;;;;;5049146;28;20439;-53
2022/12/18 12:16:27;;;;;;;26.07;13.27;;;1.10;1.00;;;;;;5050745;28;20417;-53
2022/12/18 12:19:18;;;;;;;22.53;12.90;;;0.80;1.00;;;;;;5031095;28;20409;-54
2022/12/18 12:21:53;;;;;;;26.10;14.27;;;0.80;1.00;;;;;;5030979;28;20406;-53
2022/12/18 12:24:42;;;;;;;27.30;13.87;;;0.50;1.00;;;;;;5031873;28;20443;-53
2022/12/18 12:27:08;;;;;;;24.47;13.80;;;0.30;1.00;;;;;;5049107;28;20455;-54
2022/12/18 12:29:45;;;;;;;29.70;15.30;;;0.20;1.00;;;;;;5049738;28;20437;-53
2022/12/18 12:32:29;;;;;;;27.50;14.13;;;0.20;1.00;;;;;;5032899;28;20197;-54
2022/12/18 12:35:07;;;;;;;25.67;14.33;;;0.30;1.00;;;;;;5032278;28;20444;-54
2022/12/18 12:37:54;;;;;;;29.97;14.70;;;0.20;1.00;;;;;;5051586;28;20415;-54
2022/12/18 12:40:23;;;;;;;26.60;14.67;;;0.00;1.00;;;;;;5037177;28;20528;-54
2022/12/18 12:43:13;;;;;;;25.70;14.77;;;0.10;1.00;;;;;;5055059;28;20401;-54
2022/12/18 12:45:52;;;;;;;30.13;15.70;;;0.90;1.00;;;;;;5047796;28;20507;-54
2022/12/18 12:48:37;;;;;;;33.17;14.73;;;3.10;1.00;;;;;;5054800;28;20405;-54
2022/12/18 12:51:19;;;;;;;23.13;14.40;;;5.60;1.00;;;;;;5054113;28;21016;-55
2022/12/18 12:53:45;;;;;;;26.70;14.77;;;6.10;1.00;;;;;;5053155;28;20463;-55
2022/12/18 12:56:14;;;;;;;25.83;13.30;;;5.40;1.00;;;;;;5051584;28;20929;-55